createdAt,value
2023-02-13T00:01:25.396Z,39.30
2023-02-13T00:03:53.719Z,44.77
2023-02-13T00:06:23.395Z,47.67
2023-02-13T00:08:51.557Z,51.40
2023-02-13T00:11:20.643Z,54.20
2023-02-13T00:13:48.913Z,50.77
2023-02-13T00:16:17.204Z,47.13
2023-02-13T00:18:45.357Z,42.67
2023-02-13T00:21:14.791Z,45.23
2023-02-13T00:23:44.330Z,47.93
2023-02-13T00:26:14.457Z,44.43
2023-02-13T00:28:45.794Z,48.80
2023-02-13T00:31:16.309Z,49.30
2023-02-13T00:33:44.830Z,49.27
2023-02-13T00:36:15.144Z,52.63
2023-02-13T00:38:45.342Z,46.57
2023-02-13T00:41:14.743Z,48.90
2023-02-13T00:43:42.933Z,47.87
2023-02-13T00:46:11.461Z,48.20
2023-02-13T00:48:40.303Z,45.77
2023-02-13T00:51:09.514Z,40.13
2023-02-13T00:53:39.014Z,46.23
2023-02-13T00:56:09.283Z,41.17
2023-02-13T00:58:38.133Z,48.37
2023-02-13T01:01:06.887Z,52.83
2023-02-13T01:03:36.429Z,48.77
2023-02-13T01:06:05.290Z,54.67
2023-02-13T01:08:34.768Z,54.57
2023-02-13T01:11:03.370Z,58.43
2023-02-13T01:13:33.142Z,60.57
2023-02-13T01:16:01.591Z,50.73
2023-02-13T01:18:30.476Z,48.67
2023-02-13T01:21:00.597Z,52.50
2023-02-13T01:23:32.043Z,61.97
2023-02-13T01:26:00.754Z,61.53
2023-02-13T01:28:29.470Z,173.50
2023-02-13T01:31:00.240Z,257.60
2023-02-13T01:33:29.795Z,192.60
2023-02-13T01:35:58.276Z,314.60
2023-02-13T01:38:26.566Z,173.97
2023-02-13T01:40:56.198Z,244.67
2023-02-13T01:43:25.526Z,216.53
2023-02-13T01:45:57.235Z,254.10
2023-02-13T01:48:29.830Z,196.70
2023-02-13T01:51:05.706Z,142.73
2023-02-13T01:53:41.221Z,150.17
2023-02-13T01:56:20.645Z,198.20
2023-02-13T01:58:52.305Z,106.27
2023-02-13T02:01:21.942Z,105.53
2023-02-13T02:03:57.596Z,113.43
2023-02-13T02:06:28.580Z,119.67
2023-02-13T02:09:02.202Z,127.53
2023-02-13T02:11:37.556Z,354.87
2023-02-13T02:14:06.705Z,150.73
2023-02-13T02:16:38.067Z,177.03
2023-02-13T02:19:15.494Z,216.90
2023-02-13T02:22:01.347Z,278.03
2023-02-13T02:25:13.134Z,269.33
2023-02-13T02:28:17.174Z,221.97
2023-02-13T02:31:27.579Z,168.77
2023-02-13T02:34:10.587Z,160.27
2023-02-13T02:37:00.101Z,171.37
2023-02-13T02:39:40.837Z,207.27
2023-02-13T02:42:24.969Z,114.97
2023-02-13T02:44:57.601Z,81.67
2023-02-13T02:47:45.606Z,74.03
2023-02-13T02:50:33.713Z,57.20
2023-02-13T02:53:12.107Z,63.57
2023-02-13T02:55:49.156Z,62.63
2023-02-13T02:58:40.530Z,57.70
2023-02-13T03:01:31.465Z,63.13
2023-02-13T03:04:19.132Z,56.73
2023-02-13T03:06:53.970Z,106.20
2023-02-13T03:09:43.993Z,190.30
2023-02-13T03:12:31.305Z,230.83
2023-02-13T03:14:59.712Z,239.67
2023-02-13T03:17:46.750Z,192.67
2023-02-13T03:20:51.705Z,458.57
2023-02-13T03:23:31.478Z,255.97
2023-02-13T03:26:11.799Z,253.17
2023-02-13T03:29:05.033Z,355.80
2023-02-13T03:31:39.724Z,237.63
2023-02-13T03:34:11.725Z,203.80
2023-02-13T03:37:05.721Z,258.70
2023-02-13T03:39:48.874Z,145.80
2023-02-13T03:42:23.024Z,148.17
2023-02-13T03:45:10.444Z,163.17
2023-02-13T03:47:39.662Z,173.70
2023-02-13T03:50:09.859Z,169.17
2023-02-13T03:52:46.830Z,111.90
2023-02-13T03:55:36.474Z,125.57
2023-02-13T03:58:26.607Z,127.40
2023-02-13T04:00:59.952Z,217.93
2023-02-13T04:03:32.679Z,291.17
2023-02-13T04:06:05.498Z,151.43
2023-02-13T04:08:33.950Z,142.57
2023-02-13T04:11:10.889Z,180.07
2023-02-13T04:13:46.479Z,172.80
2023-02-13T04:16:19.411Z,131.70
2023-02-13T04:18:49.622Z,122.27
2023-02-13T04:21:17.801Z,128.73
2023-02-13T04:23:45.936Z,146.10
2023-02-13T04:26:20.124Z,230.97
2023-02-13T04:28:48.482Z,170.73
2023-02-13T04:31:16.766Z,168.43
2023-02-13T04:33:45.478Z,233.50
2023-02-13T04:36:14.181Z,331.97
2023-02-13T04:38:43.005Z,217.13
2023-02-13T04:41:11.780Z,156.40
2023-02-13T04:43:43.246Z,109.17
2023-02-13T04:46:13.700Z,60.53
2023-02-13T04:48:42.812Z,94.70
2023-02-13T04:51:11.530Z,79.43
2023-02-13T04:53:40.249Z,86.97
2023-02-13T04:56:09.050Z,104.80
2023-02-13T04:58:37.411Z,157.43
2023-02-13T05:01:14.028Z,212.40
2023-02-13T05:03:42.367Z,217.50
2023-02-13T05:06:10.773Z,183.90
2023-02-13T05:08:38.988Z,162.77
2023-02-13T05:11:07.759Z,185.20
2023-02-13T05:13:36.001Z,224.57
2023-02-13T05:16:04.576Z,219.17
2023-02-13T05:18:34.126Z,217.60
2023-02-13T05:21:21.954Z,204.00
2023-02-13T05:23:50.096Z,226.33
2023-02-13T05:26:18.340Z,212.60
2023-02-13T05:29:04.165Z,183.67
2023-02-13T05:31:32.475Z,222.30
2023-02-13T05:34:02.197Z,293.70
2023-02-13T05:36:30.338Z,232.33
2023-02-13T05:38:58.478Z,188.23
2023-02-13T05:41:26.723Z,218.17
2023-02-13T05:43:54.959Z,393.90
2023-02-13T05:46:23.189Z,259.53
2023-02-13T05:48:51.426Z,278.93
2023-02-13T05:51:21.673Z,279.40
2023-02-13T05:53:49.798Z,211.37
2023-02-13T05:56:18.138Z,330.03
2023-02-13T05:58:46.345Z,454.90
2023-02-13T06:01:14.956Z,184.53
2023-02-13T06:03:43.158Z,374.20
2023-02-13T06:06:11.252Z,198.17
2023-02-13T06:08:40.779Z,267.00
2023-02-13T06:11:09.457Z,129.93
2023-02-13T06:13:40.610Z,301.37
2023-02-13T06:16:09.077Z,205.63
2023-02-13T06:18:38.026Z,367.47
2023-02-13T06:21:06.778Z,469.50
2023-02-13T06:23:35.053Z,189.87
2023-02-13T06:26:05.515Z,220.97
2023-02-13T06:28:34.364Z,268.50
2023-02-13T06:31:03.127Z,233.07
2023-02-13T06:33:31.345Z,292.67
2023-02-13T06:35:59.591Z,183.43
2023-02-13T06:38:28.280Z,191.87
2023-02-13T06:41:01.005Z,295.33
2023-02-13T06:43:30.502Z,224.20
2023-02-13T06:45:58.685Z,240.33
2023-02-13T06:48:27.235Z,186.30
2023-02-13T06:50:55.743Z,189.73
2023-02-13T06:53:25.038Z,191.20
2023-02-13T06:55:54.058Z,196.53
2023-02-13T06:58:23.045Z,188.70
2023-02-13T07:00:53.245Z,210.20
2023-02-13T07:03:21.640Z,182.30
2023-02-13T07:05:52.041Z,226.43
2023-02-13T07:08:20.618Z,295.63
2023-02-13T07:10:48.910Z,203.47
2023-02-13T07:13:17.087Z,223.93
2023-02-13T07:15:45.293Z,186.17
2023-02-13T07:18:15.169Z,189.87
2023-02-13T07:20:43.391Z,150.10
2023-02-13T07:23:11.992Z,139.63
2023-02-13T07:25:40.214Z,88.27
2023-02-13T07:28:09.769Z,82.13
2023-02-13T07:30:37.965Z,80.23
2023-02-13T07:33:06.518Z,97.47
2023-02-13T07:35:37.666Z,132.80
2023-02-13T07:38:06.559Z,111.90
2023-02-13T07:40:34.820Z,103.53
2023-02-13T07:43:03.133Z,96.03
2023-02-13T07:45:31.531Z,124.83
2023-02-13T07:47:59.786Z,119.53
2023-02-13T07:50:28.453Z,79.40
2023-02-13T07:52:58.992Z,80.27
2023-02-13T07:55:27.146Z,75.70
2023-02-13T07:57:55.697Z,118.77
2023-02-13T08:00:24.461Z,55.20
2023-02-13T08:02:52.752Z,104.37
2023-02-13T08:05:20.894Z,82.97
2023-02-13T08:07:49.102Z,55.77
2023-02-13T08:10:36.487Z,65.10
2023-02-13T08:13:05.151Z,199.17
2023-02-13T08:15:33.278Z,73.53
2023-02-13T08:18:01.504Z,68.27
2023-02-13T08:20:29.794Z,92.20
2023-02-13T08:23:04.231Z,132.40
2023-02-13T08:25:34.135Z,135.77
2023-02-13T08:28:02.967Z,78.87
2023-02-13T08:30:31.245Z,80.03
2023-02-13T08:32:59.501Z,78.20
2023-02-13T08:35:29.835Z,73.73
2023-02-13T08:37:58.341Z,85.50
2023-02-13T08:40:26.493Z,101.00
2023-02-13T08:43:01.298Z,56.27
2023-02-13T08:45:29.814Z,70.60
2023-02-13T08:47:58.576Z,94.35
2023-02-13T08:50:27.955Z,75.47
2023-02-13T08:52:56.257Z,65.43
2023-02-13T08:55:24.579Z,85.73
2023-02-13T08:57:53.003Z,55.13
2023-02-13T09:00:23.481Z,78.50
2023-02-13T09:02:51.908Z,66.57
2023-02-13T09:05:20.123Z,80.70
2023-02-13T09:07:48.561Z,79.73
2023-02-13T09:10:16.924Z,76.23
2023-02-13T09:12:45.227Z,82.53
2023-02-13T09:15:13.596Z,77.30
2023-02-13T09:17:43.109Z,63.80
2023-02-13T09:20:14.124Z,64.97
2023-02-13T09:22:42.852Z,54.90
2023-02-13T09:25:11.811Z,49.03
2023-02-13T09:27:40.189Z,99.97
2023-02-13T09:30:10.144Z,76.80
2023-02-13T09:32:38.782Z,82.13
2023-02-13T09:35:09.050Z,71.23
2023-02-13T09:37:37.241Z,85.27
2023-02-13T09:40:05.953Z,73.90
2023-02-13T09:42:38.714Z,48.70
2023-02-13T09:45:09.298Z,53.97
2023-02-13T09:47:42.345Z,66.20
2023-02-13T09:50:17.267Z,43.37
2023-02-13T09:52:47.172Z,51.93
2023-02-13T09:55:17.601Z,38.50
2023-02-13T09:57:51.286Z,59.37
2023-02-13T10:00:23.658Z,62.07
2023-02-13T10:03:19.446Z,45.40
2023-02-13T10:06:07.473Z,34.30
2023-02-13T10:08:52.898Z,32.60
2023-02-13T10:11:38.950Z,27.77
2023-02-13T10:14:17.547Z,27.43
2023-02-13T10:16:50.283Z,33.73
2023-02-13T10:19:32.695Z,28.13
2023-02-13T10:22:06.705Z,28.07
2023-02-13T10:24:40.017Z,26.63
2023-02-13T10:27:21.119Z,26.33
2023-02-13T10:30:09.535Z,26.33
2023-02-13T10:32:44.105Z,25.80
2023-02-13T10:35:21.069Z,26.03
2023-02-13T10:37:53.828Z,27.40
2023-02-13T10:40:22.683Z,31.60
2023-02-13T10:43:02.657Z,27.87
2023-02-13T10:45:50.332Z,24.00
2023-02-13T10:48:30.365Z,25.97
2023-02-13T10:51:05.127Z,21.97
2023-02-13T10:53:44.588Z,22.40
2023-02-13T10:56:24.364Z,26.70
2023-02-13T10:59:06.025Z,27.47
2023-02-13T11:01:40.870Z,27.07
2023-02-13T11:04:12.545Z,25.73
2023-02-13T11:06:44.992Z,26.67
2023-02-13T11:09:14.742Z,26.00
2023-02-13T11:11:44.350Z,31.50
2023-02-13T11:14:17.756Z,33.20
2023-02-13T11:16:55.714Z,27.13
2023-02-13T11:19:30.456Z,34.40
2023-02-13T11:22:02.860Z,25.10
2023-02-13T11:24:33.581Z,23.97
2023-02-13T11:27:05.985Z,34.72
2023-02-13T11:29:36.419Z,22.00
2023-02-13T11:32:18.762Z,20.17
2023-02-13T11:34:47.646Z,25.33
2023-02-13T11:37:19.462Z,22.87
2023-02-13T11:39:51.524Z,22.03
2023-02-13T11:42:26.630Z,30.77
2023-02-13T11:44:57.216Z,20.30
2023-02-13T11:47:37.306Z,29.30
2023-02-13T11:50:07.201Z,24.57
2023-02-13T11:52:37.079Z,25.00
2023-02-13T11:55:26.267Z,22.30
2023-02-13T11:57:58.925Z,23.30
2023-02-13T12:00:32.436Z,30.77
2023-02-13T12:03:00.921Z,22.90
2023-02-13T12:05:30.382Z,24.13
2023-02-13T12:08:02.107Z,29.63
2023-02-13T12:10:34.370Z,28.30
2023-02-13T12:13:10.598Z,24.20
2023-02-13T12:15:39.059Z,27.10
2023-02-13T12:18:15.611Z,22.77
2023-02-13T12:20:54.921Z,25.30
2023-02-13T12:23:32.548Z,32.47
2023-02-13T12:26:15.965Z,28.37
2023-02-13T12:28:58.495Z,32.17
2023-02-13T12:31:40.682Z,35.47
2023-02-13T12:34:57.218Z,33.73
2023-02-13T12:37:54.597Z,35.77
2023-02-13T12:40:36.985Z,36.03
2023-02-13T12:43:24.644Z,35.20
2023-02-13T12:46:00.186Z,31.70
2023-02-13T12:48:39.357Z,32.03
2023-02-13T12:51:22.245Z,30.77
2023-02-13T12:54:06.602Z,32.40
2023-02-13T12:56:46.855Z,29.77
2023-02-13T12:59:24.839Z,36.43
2023-02-13T13:02:10.890Z,32.17
2023-02-13T13:04:51.437Z,35.90
2023-02-13T13:07:40.637Z,32.90
2023-02-13T13:10:31.911Z,36.60
2023-02-13T13:13:11.197Z,34.67
2023-02-13T13:15:54.522Z,45.33
2023-02-13T13:18:33.229Z,35.87
2023-02-13T13:21:24.254Z,34.23
2023-02-13T13:24:01.172Z,59.47
2023-02-13T13:26:37.384Z,33.97
2023-02-13T13:29:11.952Z,37.57
2023-02-13T13:31:42.086Z,34.13
2023-02-13T13:34:18.684Z,37.50
2023-02-13T13:36:50.364Z,64.73
2023-02-13T13:39:31.569Z,32.93
2023-02-13T13:42:09.907Z,33.67
2023-02-13T13:44:54.824Z,30.70
2023-02-13T13:47:41.670Z,31.63
2023-02-13T13:50:21.254Z,32.33
2023-02-13T13:53:10.314Z,62.70
2023-02-13T13:56:01.133Z,47.43
2023-02-13T13:58:35.486Z,31.50
2023-02-13T14:01:24.783Z,32.47
2023-02-13T14:03:56.676Z,38.43
2023-02-13T14:06:26.925Z,36.23
2023-02-13T14:09:01.991Z,35.10
2023-02-13T14:11:34.197Z,37.03
2023-02-13T14:14:03.695Z,36.27
2023-02-13T14:16:42.103Z,46.33
2023-02-13T14:19:30.210Z,40.27
2023-02-13T14:22:34.106Z,42.63
2023-02-13T14:25:05.461Z,42.57
2023-02-13T14:27:37.307Z,42.33
2023-02-13T14:30:07.944Z,37.70
2023-02-13T14:32:39.192Z,38.00
2023-02-13T14:35:21.872Z,37.13
2023-02-13T14:37:53.433Z,42.13
2023-02-13T14:40:54.509Z,46.37
2023-02-13T14:43:34.310Z,47.13
2023-02-13T14:46:10.016Z,42.67
2023-02-13T14:48:43.759Z,39.40
2023-02-13T14:51:28.718Z,39.57
2023-02-13T14:54:02.617Z,39.47
2023-02-13T14:56:32.641Z,43.07
2023-02-13T14:59:11.629Z,42.50
2023-02-13T15:01:46.051Z,43.57
2023-02-13T15:04:18.694Z,41.50
2023-02-13T15:06:50.652Z,41.67
2023-02-13T15:09:28.875Z,40.13
2023-02-13T15:11:57.460Z,45.47
2023-02-13T15:14:33.344Z,44.33
2023-02-13T15:17:08.205Z,43.20
2023-02-13T15:19:50.180Z,45.43
2023-02-13T15:22:21.921Z,44.33
2023-02-13T15:24:51.641Z,44.90
2023-02-13T15:27:25.855Z,48.57
2023-02-13T15:30:03.594Z,48.87
2023-02-13T15:32:36.772Z,44.00
2023-02-13T15:35:23.806Z,48.43
2023-02-13T15:37:52.673Z,50.70
2023-02-13T15:40:26.833Z,48.83
2023-02-13T15:42:56.221Z,45.00
2023-02-13T15:45:28.600Z,50.93
2023-02-13T15:47:59.215Z,52.97
2023-02-13T15:50:32.273Z,50.90
2023-02-13T15:53:04.248Z,60.80
2023-02-13T15:55:36.256Z,58.03
2023-02-13T15:58:05.297Z,57.07
2023-02-13T16:00:37.601Z,55.77
2023-02-13T16:03:09.614Z,56.97
2023-02-13T16:05:41.790Z,57.33
2023-02-13T16:08:29.638Z,57.80
2023-02-13T16:11:19.859Z,55.10
2023-02-13T16:14:07.911Z,74.77
2023-02-13T16:16:44.169Z,73.67
2023-02-13T16:19:31.778Z,114.63
2023-02-13T16:22:05.913Z,75.97
2023-02-13T16:24:35.201Z,76.73
2023-02-13T16:27:04.862Z,71.33
2023-02-13T16:29:33.327Z,70.20
2023-02-13T16:32:11.268Z,65.20
2023-02-13T16:34:39.613Z,64.43
2023-02-13T16:37:31.843Z,77.07
2023-02-13T16:40:32.840Z,71.13
2023-02-13T16:43:34.622Z,68.87
2023-02-13T16:46:29.095Z,73.43
2023-02-13T16:49:26.642Z,68.00
2023-02-13T16:52:12.195Z,86.73
2023-02-13T16:54:55.913Z,193.00
2023-02-13T16:57:30.633Z,88.57
2023-02-13T17:00:09.769Z,95.10
2023-02-13T17:02:40.048Z,127.13
2023-02-13T17:05:29.640Z,120.40
2023-02-13T17:08:00.427Z,226.83
2023-02-13T17:10:33.787Z,115.77
2023-02-13T17:13:03.589Z,200.43
2023-02-13T17:15:33.358Z,286.43
2023-02-13T17:18:01.904Z,186.60
2023-02-13T17:20:32.558Z,265.00
2023-02-13T17:23:01.939Z,171.40
2023-02-13T17:25:33.531Z,103.20
2023-02-13T17:28:03.822Z,221.70
2023-02-13T17:30:34.530Z,229.40
2023-02-13T17:33:07.525Z,198.47
2023-02-13T17:35:36.487Z,461.97
2023-02-13T17:38:06.232Z,263.80
2023-02-13T17:40:37.552Z,194.03
2023-02-13T17:43:06.241Z,481.80
2023-02-13T17:45:36.047Z,302.57
2023-02-13T17:48:04.967Z,596.50
2023-02-13T17:50:34.651Z,298.07
2023-02-13T17:53:05.308Z,264.07
2023-02-13T17:55:36.503Z,381.30
2023-02-13T17:58:05.032Z,286.17
2023-02-13T18:00:35.594Z,278.50
2023-02-13T18:03:04.686Z,329.83
2023-02-13T18:05:34.489Z,281.33
2023-02-13T18:08:03.356Z,283.30
2023-02-13T18:10:37.880Z,322.33
2023-02-13T18:13:06.714Z,478.07
2023-02-13T18:15:37.222Z,354.27
2023-02-13T18:18:06.789Z,400.83
2023-02-13T18:20:35.748Z,466.77
2023-02-13T18:23:06.207Z,209.67
2023-02-13T18:25:36.207Z,231.93
2023-02-13T18:28:04.899Z,375.17
2023-02-13T18:30:33.516Z,392.67
2023-02-13T18:33:05.160Z,431.33
2023-02-13T18:35:36.123Z,244.00
2023-02-13T18:38:04.710Z,483.30
2023-02-13T18:40:33.053Z,614.67
2023-02-13T18:43:02.879Z,607.63
2023-02-13T18:45:31.173Z,276.83
2023-02-13T18:47:59.633Z,406.13
2023-02-13T18:50:27.961Z,828.93
2023-02-13T18:52:56.229Z,647.15
2023-02-13T18:55:24.626Z,530.20
2023-02-13T18:57:53.713Z,395.97
2023-02-13T19:00:23.771Z,705.33
2023-02-13T19:02:52.088Z,310.67
2023-02-13T19:05:20.658Z,213.20
2023-02-13T19:07:49.024Z,165.77
2023-02-13T19:10:17.811Z,113.57
2023-02-13T19:12:46.183Z,679.07
2023-02-13T19:15:14.820Z,527.73
2023-02-13T19:17:45.498Z,450.93
2023-02-13T19:20:16.667Z,515.90
2023-02-13T19:22:45.158Z,282.37
2023-02-13T19:25:13.498Z,487.17
2023-02-13T19:27:41.724Z,666.30
2023-02-13T19:30:12.350Z,502.07
2023-02-13T19:32:41.508Z,526.97
2023-02-13T19:35:11.480Z,445.37
2023-02-13T19:37:44.232Z,500.67
2023-02-13T19:40:13.991Z,665.47
2023-02-13T19:42:42.292Z,510.60
2023-02-13T19:45:11.813Z,547.17
2023-02-13T19:47:40.384Z,474.23
2023-02-13T19:50:11.438Z,303.63
2023-02-13T19:52:39.994Z,679.80
2023-02-13T19:55:08.638Z,277.23
2023-02-13T19:57:37.645Z,242.73
2023-02-13T20:00:09.518Z,692.50
2023-02-13T20:02:41.406Z,290.90
2023-02-13T20:05:11.515Z,198.27
2023-02-13T20:07:40.084Z,395.87
2023-02-13T20:10:10.308Z,320.13
2023-02-13T20:12:39.159Z,515.87
2023-02-13T20:15:07.796Z,407.93
2023-02-13T20:17:37.819Z,315.70
2023-02-13T20:20:07.265Z,276.13
2023-02-13T20:22:36.751Z,277.83
2023-02-13T20:25:05.582Z,302.43
2023-02-13T20:30:07.355Z,682.70
2023-02-13T20:32:36.072Z,229.70
2023-02-13T20:35:05.074Z,589.17
2023-02-13T20:37:33.675Z,335.23
2023-02-13T20:40:03.432Z,384.03
2023-02-13T20:42:33.946Z,536.87
2023-02-13T20:45:02.328Z,321.00
2023-02-13T20:47:31.010Z,461.33
2023-02-13T20:49:59.361Z,427.47
2023-02-13T20:52:27.708Z,248.63
2023-02-13T20:54:55.927Z,686.23
2023-02-13T20:57:25.513Z,489.87
2023-02-13T20:59:53.855Z,562.00
2023-02-13T21:02:22.294Z,333.27
2023-02-13T21:04:50.694Z,238.00
2023-02-13T21:07:19.131Z,214.70
2023-02-13T21:09:47.802Z,243.27
2023-02-13T21:12:15.961Z,572.67
2023-02-13T21:14:45.550Z,247.30
2023-02-13T21:17:14.974Z,331.60
2023-02-13T21:19:43.424Z,362.53
2023-02-13T21:22:14.492Z,428.27
2023-02-13T21:24:44.099Z,499.43
2023-02-13T21:27:12.518Z,609.47
2023-02-13T21:29:40.947Z,423.57
2023-02-13T21:32:10.726Z,406.37
2023-02-13T21:34:39.111Z,277.23
2023-02-13T21:37:07.685Z,317.17
2023-02-13T21:39:37.268Z,637.13
2023-02-13T21:42:05.660Z,421.47
2023-02-13T21:44:33.932Z,460.70
2023-02-13T21:47:02.297Z,196.03
2023-02-13T21:49:31.961Z,476.00
2023-02-13T21:52:00.176Z,663.20
2023-02-13T21:54:28.867Z,188.20
2023-02-13T21:56:57.359Z,521.07
2023-02-13T21:59:25.656Z,690.43
2023-02-13T22:01:55.313Z,501.47
2023-02-13T22:04:23.819Z,316.63
2023-02-13T22:06:54.085Z,215.43
2023-02-13T22:09:25.445Z,249.80
2023-02-13T22:11:54.773Z,268.20
2023-02-13T22:14:22.980Z,512.80
2023-02-13T22:16:52.627Z,388.77
2023-02-13T22:19:21.334Z,265.53
2023-02-13T22:21:49.842Z,300.80
2023-02-13T22:24:19.492Z,485.60
2023-02-13T22:26:47.721Z,213.40
2023-02-13T22:29:18.535Z,214.37
2023-02-13T22:31:47.004Z,269.20
2023-02-13T22:34:15.638Z,331.00
2023-02-13T22:36:43.929Z,327.07
2023-02-13T22:39:13.081Z,464.87
2023-02-13T22:41:45.530Z,352.27
2023-02-13T22:44:13.719Z,458.97
2023-02-13T22:46:42.025Z,361.50
2023-02-13T22:49:10.535Z,378.83
2023-02-13T22:51:38.783Z,384.30
2023-02-13T22:54:07.156Z,237.60
2023-02-13T22:56:35.937Z,300.00
2023-02-13T22:59:05.908Z,194.23
2023-02-13T23:01:34.134Z,236.20
2023-02-13T23:04:02.318Z,247.70
2023-02-13T23:06:30.580Z,628.13
2023-02-13T23:08:58.884Z,319.90
2023-02-13T23:11:46.511Z,276.93
2023-02-13T23:14:17.120Z,455.23
2023-02-13T23:17:02.952Z,447.13
2023-02-13T23:19:31.388Z,375.77
2023-02-13T23:21:59.940Z,384.57
2023-02-13T23:24:28.671Z,551.50
2023-02-13T23:26:56.947Z,433.80
2023-02-13T23:29:26.973Z,455.20
2023-02-13T23:31:55.391Z,394.20
2023-02-13T23:34:23.807Z,463.80
2023-02-13T23:36:52.113Z,467.07
2023-02-13T23:39:21.100Z,402.40
2023-02-13T23:41:49.269Z,358.07
2023-02-13T23:44:17.515Z,390.30
2023-02-13T23:46:47.243Z,292.13
2023-02-13T23:49:15.682Z,278.67
2023-02-13T23:51:43.941Z,157.07
2023-02-13T23:54:16.241Z,467.60
2023-02-13T23:56:44.835Z,235.70
2023-02-13T23:59:13.779Z,301.30
